sensor_id;sensor_type;location;lat;lon;timestamp;pressure;altitude;pressure_sealevel;temperature;humidity
71889;BME280;59762;49.998;14.858;2023-11-19T00:02:19;97517.38;;;1.53;100.00
71889;BME280;59762;49.998;14.858;2023-11-19T00:04:45;97521.13;;;1.49;100.00
71889;BME280;59762;49.998;14.858;2023-11-19T00:07:10;97525.88;;;1.44;100.00
71889;BME280;59762;49.998;14.858;2023-11-19T00:09:39;97525.00;;;1.44;100.00
71889;BME280;59762;49.998;14.858;2023-11-19T00:12:06;97503.97;;;1.44;100.00
71889;BME280;59762;49.998;14.858;2023-11-19T00:14:32;97497.63;;;1.34;100.00
71889;BME280;59762;49.998;14.858;2023-11-19T00:16:58;97479.22;;;1.34;100.00
71889;BME280;59762;49.998;14.858;2023-11-19T00:19:23;97461.75;;;1.33;100.00
71889;BME280;59762;49.998;14.858;2023-11-19T00:21:49;97460.69;;;1.35;100.00
71889;BME280;59762;49.998;14.858;2023-11-19T00:24:14;97449.31;;;1.35;100.00
71889;BME280;59762;49.998;14.858;2023-11-19T00:26:43;97439.44;;;1.38;100.00
71889;BME280;59762;49.998;14.858;2023-11-19T00:29:09;97437.84;;;1.36;100.00
71889;BME280;59762;49.998;14.858;2023-11-19T00:31:35;97433.09;;;1.28;100.00
71889;BME280;59762;49.998;14.858;2023-11-19T00:34:01;97433.53;;;1.22;100.00
71889;BME280;59762;49.998;14.858;2023-11-19T00:36:31;97437.94;;;1.22;100.00
71889;BME280;59762;49.998;14.858;2023-11-19T00:38:57;97431.19;;;1.30;100.00
71889;BME280;59762;49.998;14.858;2023-11-19T00:41:24;97415.03;;;1.36;100.00
71889;BME280;59762;49.998;14.858;2023-11-19T00:43:50;97396.81;;;1.33;100.00
71889;BME280;59762;49.998;14.858;2023-11-19T00:46:17;97395.84;;;1.22;100.00
71889;BME280;59762;49.998;14.858;2023-11-19T00:48:43;97398.47;;;1.22;100.00
71889;BME280;59762;49.998;14.858;2023-11-19T00:51:08;97398.47;;;1.22;100.00
71889;BME280;59762;49.998;14.858;2023-11-19T00:53:36;97388.06;;;1.20;100.00
71889;BME280;59762;49.998;14.858;2023-11-19T00:56:03;97379.78;;;1.26;100.00
71889;BME280;59762;49.998;14.858;2023-11-19T00:58:29;97373.53;;;1.15;100.00
71889;BME280;59762;49.998;14.858;2023-11-19T01:00:55;97385.31;;;1.09;100.00
71889;BME280;59762;49.998;14.858;2023-11-19T01:03:22;97382.47;;;1.12;100.00
71889;BME280;59762;49.998;14.858;2023-11-19T01:05:48;97370.59;;;1.19;100.00
71889;BME280;59762;49.998;14.858;2023-11-19T01:08:14;97362.81;;;1.18;100.00
71889;BME280;59762;49.998;14.858;2023-11-19T01:10:41;97362.72;;;1.19;100.00
71889;BME280;59762;49.998;14.858;2023-11-19T01:13:07;97367.88;;;1.33;100.00
71889;BME280;59762;49.998;14.858;2023-11-19T01:15:33;97352.19;;;1.32;100.00
71889;BME280;59762;49.998;14.858;2023-11-19T01:17:58;97346.13;;;1.31;100.00
71889;BME280;59762;49.998;14.858;2023-11-19T01:20:24;97345.59;;;1.26;100.00
71889;BME280;59762;49.998;14.858;2023-11-19T01:22:50;97345.16;;;1.32;100.00
71889;BME280;59762;49.998;14.858;2023-11-19T01:25:16;97335.16;;;1.37;100.00
71889;BME280;59762;49.998;14.858;2023-11-19T01:27:42;97334.22;;;1.38;100.00
71889;BME280;59762;49.998;14.858;2023-11-19T01:30:08;97333.78;;;1.32;100.00
71889;BME280;59762;49.998;14.858;2023-11-19T01:32:41;97325.91;;;1.44;100.00
71889;BME280;59762;49.998;14.858;2023-11-19T01:35:07;97322.44;;;1.44;100.00
71889;BME280;59762;49.998;14.858;2023-11-19T01:37:36;97313.50;;;1.34;100.00
71889;BME280;59762;49.998;14.858;2023-11-19T01:40:02;97311.19;;;1.42;100.00
71889;BME280;59762;49.998;14.858;2023-11-19T01:42:30;97313.19;;;1.51;100.00
71889;BME280;59762;49.998;14.858;2023-11-19T01:44:59;97317.41;;;1.53;100.00
71889;BME280;59762;49.998;14.858;2023-11-19T01:47:26;97302.44;;;1.41;100.00
71889;BME280;59762;49.998;14.858;2023-11-19T01:49:54;97302.97;;;1.34;100.00
71889;BME280;59762;49.998;14.858;2023-11-19T01:52:20;97298.03;;;1.42;100.00
71889;BME280;59762;49.998;14.858;2023-11-19T01:54:46;97285.94;;;1.39;100.00
71889;BME280;59762;49.998;14.858;2023-11-19T01:57:13;97276.56;;;1.35;100.00
71889;BME280;59762;49.998;14.858;2023-11-19T01:59:39;97275.09;;;1.44;100.00
71889;BME280;59762;49.998;14.858;2023-11-19T02:02:07;97265.94;;;1.49;100.00
71889;BME280;59762;49.998;14.858;2023-11-19T02:04:33;97250.25;;;1.48;100.00
71889;BME280;59762;49.998;14.858;2023-11-19T02:07:00;97241.63;;;1.46;100.00
71889;BME280;59762;49.998;14.858;2023-11-19T02:09:26;97254.25;;;1.41;100.00
71889;BME280;59762;49.998;14.858;2023-11-19T02:11:53;97248.78;;;1.44;100.00
71889;BME280;59762;49.998;14.858;2023-11-19T02:14:22;97240.69;;;1.47;100.00
71889;BME280;59762;49.998;14.858;2023-11-19T02:16:49;97223.22;;;1.46;100.00
71889;BME280;59762;49.998;14.858;2023-11-19T02:19:15;97220.28;;;1.38;100.00
71889;BME280;59762;49.998;14.858;2023-11-19T02:21:40;97224.88;;;1.34;100.00
71889;BME280;59762;49.998;14.858;2023-11-19T02:24:09;97221.63;;;1.43;100.00
71889;BME280;59762;49.998;14.858;2023-11-19T02:26:43;97208.19;;;1.35;100.00
71889;BME280;59762;49.998;14.858;2023-11-19T02:29:11;97213.31;;;1.37;100.00
71889;BME280;59762;49.998;14.858;2023-11-19T02:31:37;97199.25;;;1.38;100.00
71889;BME280;59762;49.998;14.858;2023-11-19T02:34:02;97169.75;;;1.45;100.00
71889;BME280;59762;49.998;14.858;2023-11-19T02:36:28;97163.44;;;1.48;100.00
71889;BME280;59762;49.998;14.858;2023-11-19T02:38:54;97158.06;;;1.49;100.00
71889;BME280;59762;49.998;14.858;2023-11-19T02:41:20;97177.09;;;1.53;100.00
71889;BME280;59762;49.998;14.858;2023-11-19T02:43:46;97168.13;;;1.55;100.00
71889;BME280;59762;49.998;14.858;2023-11-19T02:46:14;97164.44;;;1.58;100.00
71889;BME280;59762;49.998;14.858;2023-11-19T02:48:39;97174.16;;;1.57;100.00
71889;BME280;59762;49.998;14.858;2023-11-19T02:51:06;97165.00;;;1.50;100.00
71889;BME280;59762;49.998;14.858;2023-11-19T02:53:35;97169.31;;;1.51;100.00
71889;BME280;59762;49.998;14.858;2023-11-19T02:56:00;97162.88;;;1.55;100.00
71889;BME280;59762;49.998;14.858;2023-11-19T02:58:31;97157.00;;;1.52;100.00
71889;BME280;59762;49.998;14.858;2023-11-19T03:00:57;97158.13;;;1.60;100.00
71889;BME280;59762;49.998;14.858;2023-11-19T03:03:25;97150.97;;;1.62;100.00
71889;BME280;59762;49.998;14.858;2023-11-19T03:05:57;97158.13;;;1.60;100.00
71889;BME280;59762;49.998;14.858;2023-11-19T03:08:23;97151.78;;;1.63;100.00
71889;BME280;59762;49.998;14.858;2023-11-19T03:10:48;97133.06;;;1.67;100.00
71889;BME280;59762;49.998;14.858;2023-11-19T03:13:15;97137.47;;;1.67;100.00
71889;BME280;59762;49.998;14.858;2023-11-19T03:15:41;97132.94;;;1.69;100.00
71889;BME280;59762;49.998;14.858;2023-11-19T03:18:07;97142.31;;;1.73;100.00
71889;BME280;59762;49.998;14.858;2023-11-19T03:20:33;97123.25;;;1.69;100.00
71889;BME280;59762;49.998;14.858;2023-11-19T03:22:59;97119.69;;;1.70;100.00
71889;BME280;59762;49.998;14.858;2023-11-19T03:25:27;97107.84;;;1.76;100.00
71889;BME280;59762;49.998;14.858;2023-11-19T03:27:59;97114.91;;;1.75;100.00
71889;BME280;59762;49.998;14.858;2023-11-19T03:30:26;97110.25;;;1.79;100.00
71889;BME280;59762;49.998;14.858;2023-11-19T03:32:54;97105.84;;;1.79;100.00
71889;BME280;59762;49.998;14.858;2023-11-19T03:35:20;97118.66;;;1.84;100.00
71889;BME280;59762;49.998;14.858;2023-11-19T03:37:46;97104.88;;;1.80;100.00
71889;BME280;59762;49.998;14.858;2023-11-19T03:40:12;97107.53;;;1.80;100.00
71889;BME280;59762;49.998;14.858;2023-11-19T03:42:38;97087.81;;;1.86;100.00
71889;BME280;59762;49.998;14.858;2023-11-19T03:45:08;97093.47;;;1.92;100.00
71889;BME280;59762;49.998;14.858;2023-11-19T03:47:35;97090.19;;;1.89;100.00
71889;BME280;59762;49.998;14.858;2023-11-19T03:50:01;97084.00;;;1.90;100.00
71889;BME280;59762;49.998;14.858;2023-11-19T03:52:28;97066.19;;;1.93;100.00
71889;BME280;59762;49.998;14.858;2023-11-19T03:54:54;97057.19;;;1.85;100.00
71889;BME280;59762;49.998;14.858;2023-11-19T03:57:21;97049.16;;;1.86;100.00
71889;BME280;59762;49.998;14.858;2023-11-19T03:59:47;97050.38;;;1.93;100.00
71889;BME280;59762;49.998;14.858;2023-11-19T04:02:13;97046.19;;;1.91;100.00
71889;BME280;59762;49.998;14.858;2023-11-19T04:04:38;97042.00;;;1.88;100.00
71889;BME280;59762;49.998;14.858;2023-11-19T04:07:05;97030.41;;;1.91;100.00
71889;BME280;59762;49.998;14.858;2023-11-19T04:09:31;97040.81;;;1.92;100.00
71889;BME280;59762;49.998;14.858;2023-11-19T04:12:00;97030.72;;;1.86;100.00
71889;BME280;59762;49.998;14.858;2023-11-19T04:14:26;97036.38;;;1.93;100.00
71889;BME280;59762;49.998;14.858;2023-11-19T04:16:52;97031.09;;;1.93;100.00
71889;BME280;59762;49.998;14.858;2023-11-19T04:19:21;97023.09;;;1.94;100.00
71889;BME280;59762;49.998;14.858;2023-11-19T04:21:49;97015.56;;;2.01;100.00
71889;BME280;59762;49.998;14.858;2023-11-19T04:24:14;97013.31;;;1.96;100.00
71889;BME280;59762;49.998;14.858;2023-11-19T04:26:44;97011.59;;;1.95;100.00
71889;BME280;59762;49.998;14.858;2023-11-19T04:29:15;97004.66;;;1.94;100.00
71889;BME280;59762;49.998;14.858;2023-11-19T04:31:45;96996.66;;;1.96;100.00
71889;BME280;59762;49.998;14.858;2023-11-19T04:34:11;97001.34;;;2.03;100.00
71889;BME280;59762;49.998;14.858;2023-11-19T04:36:37;96988.28;;;2.02;100.00
71889;BME280;59762;49.998;14.858;2023-11-19T04:39:03;96987.47;;;2.01;100.00
71889;BME280;59762;49.998;14.858;2023-11-19T04:41:50;96974.63;;;1.97;100.00
71889;BME280;59762;49.998;14.858;2023-11-19T04:44:18;96965.44;;;2.02;100.00
71889;BME280;59762;49.998;14.858;2023-11-19T04:46:44;96953.94;;;2.03;100.00
71889;BME280;59762;49.998;14.858;2023-11-19T04:49:11;96955.88;;;2.01;100.00
71889;BME280;59762;49.998;14.858;2023-11-19T04:51:40;96951.31;;;2.03;100.00
71889;BME280;59762;49.998;14.858;2023-11-19T04:54:08;96956.56;;;2.03;100.00
71889;BME280;59762;49.998;14.858;2023-11-19T04:56:35;96960.91;;;2.04;100.00
71889;BME280;59762;49.998;14.858;2023-11-19T04:59:01;96942.00;;;2.10;100.00
71889;BME280;59762;49.998;14.858;2023-11-19T05:01:28;96949.03;;;2.10;100.00
71889;BME280;59762;49.998;14.858;2023-11-19T05:03:53;96953.22;;;2.12;100.00
71889;BME280;59762;49.998;14.858;2023-11-19T05:06:19;96929.53;;;2.12;100.00
71889;BME280;59762;49.998;14.858;2023-11-19T05:08:45;96929.53;;;2.12;100.00
71889;BME280;59762;49.998;14.858;2023-11-19T05:11:11;96931.44;;;2.21;100.00
71889;BME280;59762;49.998;14.858;2023-11-19T05:13:43;96932.31;;;2.22;100.00
71889;BME280;59762;49.998;14.858;2023-11-19T05:16:11;96924.88;;;2.27;100.00
71889;BME280;59762;49.998;14.858;2023-11-19T05:18:42;96908.59;;;2.22;100.00
71889;BME280;59762;49.998;14.858;2023-11-19T05:21:08;96908.38;;;2.25;100.00
71889;BME280;59762;49.998;14.858;2023-11-19T05:23:34;96897.44;;;2.29;100.00
71889;BME280;59762;49.998;14.858;2023-11-19T05:26:03;96900.19;;;2.28;100.00
71889;BME280;59762;49.998;14.858;2023-11-19T05:28:29;96889.06;;;2.24;100.00
71889;BME280;59762;49.998;14.858;2023-11-19T05:30:55;96882.63;;;2.28;100.00
71889;BME280;59762;49.998;14.858;2023-11-19T05:33:21;96877.56;;;2.25;100.00
71889;BME280;59762;49.998;14.858;2023-11-19T05:35:47;96883.81;;;2.35;100.00
71889;BME280;59762;49.998;14.858;2023-11-19T05:38:12;96883.81;;;2.35;100.00
71889;BME280;59762;49.998;14.858;2023-11-19T05:40:38;96881.06;;;2.37;100.00
71889;BME280;59762;49.998;14.858;2023-11-19T05:43:04;96875.53;;;2.40;100.00
71889;BME280;59762;49.998;14.858;2023-11-19T05:45:32;96872.91;;;2.40;100.00
71889;BME280;59762;49.998;14.858;2023-11-19T05:47:57;96869.91;;;2.44;100.00
71889;BME280;59762;49.998;14.858;2023-11-19T05:50:23;96859.50;;;2.43;100.00
71889;BME280;59762;49.998;14.858;2023-11-19T05:52:49;96842.25;;;2.50;100.00
71889;BME280;59762;49.998;14.858;2023-11-19T05:55:15;96838.88;;;2.48;100.00
71889;BME280;59762;49.998;14.858;2023-11-19T05:57:41;96849.88;;;2.53;100.00
71889;BME280;59762;49.998;14.858;2023-11-19T06:00:07;96847.50;;;2.50;100.00
71889;BME280;59762;49.998;14.858;2023-11-19T06:02:34;96850.00;;;2.51;100.00
71889;BME280;59762;49.998;14.858;2023-11-19T06:05:00;96841.84;;;2.54;100.00
71889;BME280;59762;49.998;14.858;2023-11-19T06:07:27;96840.66;;;2.58;100.00
71889;BME280;59762;49.998;14.858;2023-11-19T06:09:53;96826.63;;;2.58;100.00
71889;BME280;59762;49.998;14.858;2023-11-19T06:12:19;96828.66;;;2.65;100.00
71889;BME280;59762;49.998;14.858;2023-11-19T06:14:45;96830.56;;;2.63;100.00
71889;BME280;59762;49.998;14.858;2023-11-19T06:17:10;96827.69;;;2.66;100.00
71889;BME280;59762;49.998;14.858;2023-11-19T06:19:37;96827.94;;;2.63;100.00
71889;BME280;59762;49.998;14.858;2023-11-19T06:22:03;96817.03;;;2.68;100.00
71889;BME280;59762;49.998;14.858;2023-11-19T06:24:29;96812.13;;;2.63;100.00
71889;BME280;59762;49.998;14.858;2023-11-19T06:26:55;96811.63;;;2.69;100.00
71889;BME280;59762;49.998;14.858;2023-11-19T06:29:21;96816.75;;;2.71;100.00
71889;BME280;59762;49.998;14.858;2023-11-19T06:31:46;96821.47;;;2.67;100.00
71889;BME280;59762;49.998;14.858;2023-11-19T06:34:14;96812.34;;;2.71;100.00
71889;BME280;59762;49.998;14.858;2023-11-19T06:36:40;96798.19;;;2.72;100.00
71889;BME280;59762;49.998;14.858;2023-11-19T06:39:06;96800.25;;;2.69;100.00
71889;BME280;59762;49.998;14.858;2023-11-19T06:41:31;96779.28;;;2.67;100.00
71889;BME280;59762;49.998;14.858;2023-11-19T06:43:57;96777.75;;;2.65;100.00
71889;BME280;59762;49.998;14.858;2023-11-19T06:46:23;96788.16;;;2.66;100.00
71889;BME280;59762;49.998;14.858;2023-11-19T06:48:48;96800.59;;;2.75;100.00
71889;BME280;59762;49.998;14.858;2023-11-19T06:51:14;96794.75;;;2.72;100.00
71889;BME280;59762;49.998;14.858;2023-11-19T06:53:42;96797.38;;;2.72;100.00
71889;BME280;59762;49.998;14.858;2023-11-19T06:56:22;96799.16;;;2.71;100.00
71889;BME280;59762;49.998;14.858;2023-11-19T06:58:51;96796.13;;;2.76;100.00
71889;BME280;59762;49.998;14.858;2023-11-19T07:01:17;96782.38;;;2.72;100.00
71889;BME280;59762;49.998;14.858;2023-11-19T07:03:45;96785.59;;;2.76;100.00
71889;BME280;59762;49.998;14.858;2023-11-19T07:06:11;96784.38;;;2.80;100.00
71889;BME280;59762;49.998;14.858;2023-11-19T07:08:39;96778.16;;;2.81;100.00
71889;BME280;59762;49.998;14.858;2023-11-19T07:11:06;96780.06;;;2.79;100.00
71889;BME280;59762;49.998;14.858;2023-11-19T07:13:32;96790.25;;;2.83;100.00
71889;BME280;59762;49.998;14.858;2023-11-19T07:15:57;96780.94;;;2.79;100.00
71889;BME280;59762;49.998;14.858;2023-11-19T07:18:24;96771.19;;;2.80;100.00
71889;BME280;59762;49.998;14.858;2023-11-19T07:20:50;96780.66;;;2.82;100.00
71889;BME280;59762;49.998;14.858;2023-11-19T07:23:15;96789.28;;;2.84;100.00
71889;BME280;59762;49.998;14.858;2023-11-19T07:25:44;96789.75;;;2.89;100.00
71889;BME280;59762;49.998;14.858;2023-11-19T07:28:13;96790.59;;;2.90;100.00
71889;BME280;59762;49.998;14.858;2023-11-19T07:30:38;96791.72;;;2.97;100.00
71889;BME280;59762;49.998;14.858;2023-11-19T07:33:04;96777.59;;;2.98;100.00
71889;BME280;59762;49.998;14.858;2023-11-19T07:35:31;96792.59;;;2.97;100.00
71889;BME280;59762;49.998;14.858;2023-11-19T07:37:57;96762.72;;;2.97;100.00
71889;BME280;59762;49.998;14.858;2023-11-19T07:40:23;96774.44;;;3.04;100.00
71889;BME280;59762;49.998;14.858;2023-11-19T07:42:50;96768.53;;;3.11;100.00
71889;BME280;59762;49.998;14.858;2023-11-19T07:45:16;96748.84;;;3.15;100.00
71889;BME280;59762;49.998;14.858;2023-11-19T07:47:43;96783.41;;;3.33;100.00
71889;BME280;59762;49.998;14.858;2023-11-19T07:50:10;96775.22;;;3.36;100.00
71889;BME280;59762;49.998;14.858;2023-11-19T07:52:37;96750.47;;;3.27;100.00
71889;BME280;59762;49.998;14.858;2023-11-19T07:55:02;96772.44;;;3.37;100.00
71889;BME280;59762;49.998;14.858;2023-11-19T07:57:28;96765.09;;;3.41;100.00
71889;BME280;59762;49.998;14.858;2023-11-19T07:59:56;96772.06;;;3.42;100.00
71889;BME280;59762;49.998;14.858;2023-11-19T08:02:22;96786.41;;;3.49;100.00
71889;BME280;59762;49.998;14.858;2023-11-19T08:04:49;96795.22;;;3.59;100.00
71889;BME280;59762;49.998;14.858;2023-11-19T08:07:18;96782.06;;;3.68;100.00
71889;BME280;59762;49.998;14.858;2023-11-19T08:09:44;96779.06;;;3.52;100.00
71889;BME280;59762;49.998;14.858;2023-11-19T08:12:10;96805.25;;;3.65;100.00
71889;BME280;59762;49.998;14.858;2023-11-19T08:14:36;96797.91;;;3.68;100.00
71889;BME280;59762;49.998;14.858;2023-11-19T08:17:03;96787.34;;;3.68;100.00
71889;BME280;59762;49.998;14.858;2023-11-19T08:19:28;96764.25;;;3.61;100.00
71889;BME280;59762;49.998;14.858;2023-11-19T08:21:54;96779.81;;;3.64;100.00
71889;BME280;59762;49.998;14.858;2023-11-19T08:24:19;96787.81;;;3.83;100.00
71889;BME280;59762;49.998;14.858;2023-11-19T08:26:45;96781.50;;;3.95;100.00
71889;BME280;59762;49.998;14.858;2023-11-19T08:29:11;96792.34;;;4.01;100.00
71889;BME280;59762;49.998;14.858;2023-11-19T08:31:37;96791.63;;;3.99;100.00
71889;BME280;59762;49.998;14.858;2023-11-19T08:34:02;96782.47;;;4.03;100.00
71889;BME280;59762;49.998;14.858;2023-11-19T08:36:28;96774.31;;;4.06;100.00
71889;BME280;59762;49.998;14.858;2023-11-19T08:38:54;96769.75;;;4.08;100.00
71889;BME280;59762;49.998;14.858;2023-11-19T08:41:21;96768.03;;;4.07;100.00
71889;BME280;59762;49.998;14.858;2023-11-19T08:43:47;96769.56;;;4.10;100.00
71889;BME280;59762;49.998;14.858;2023-11-19T08:46:13;96774.34;;;4.16;100.00
71889;BME280;59762;49.998;14.858;2023-11-19T08:48:38;96761.84;;;4.27;100.00
71889;BME280;59762;49.998;14.858;2023-11-19T08:51:05;96761.38;;;4.13;100.00
71889;BME280;59762;49.998;14.858;2023-11-19T08:53:30;96759.16;;;4.08;100.00
71889;BME280;59762;49.998;14.858;2023-11-19T08:55:56;96757.81;;;4.23;100.00
71889;BME280;59762;49.998;14.858;2023-11-19T08:58:22;96765.31;;;4.18;100.00
71889;BME280;59762;49.998;14.858;2023-11-19T09:00:48;96752.34;;;4.15;100.00
71889;BME280;59762;49.998;14.858;2023-11-19T09:03:13;96754.88;;;4.17;100.00
71889;BME280;59762;49.998;14.858;2023-11-19T09:05:39;96751.97;;;4.20;100.00
71889;BME280;59762;49.998;14.858;2023-11-19T09:08:06;96756.28;;;4.21;100.00
71889;BME280;59762;49.998;14.858;2023-11-19T09:10:32;96760.19;;;4.26;100.00
71889;BME280;59762;49.998;14.858;2023-11-19T09:12:58;96752.13;;;4.28;100.00
71889;BME280;59762;49.998;14.858;2023-11-19T09:15:23;96751.03;;;4.30;100.00
71889;BME280;59762;49.998;14.858;2023-11-19T09:17:49;96750.59;;;4.35;100.00
71889;BME280;59762;49.998;14.858;2023-11-19T09:20:15;96747.00;;;4.45;100.00
71889;BME280;59762;49.998;14.858;2023-11-19T09:22:43;96752.47;;;4.63;100.00
71889;BME280;59762;49.998;14.858;2023-11-19T09:25:09;96750.91;;;4.79;100.00
71889;BME280;59762;49.998;14.858;2023-11-19T09:27:35;96745.06;;;4.95;100.00
71889;BME280;59762;49.998;14.858;2023-11-19T09:30:00;96739.19;;;5.01;100.00
71889;BME280;59762;49.998;14.858;2023-11-19T09:32:26;96742.81;;;5.19;100.00
71889;BME280;59762;49.998;14.858;2023-11-19T09:34:52;96748.09;;;5.28;100.00
71889;BME280;59762;49.998;14.858;2023-11-19T09:37:18;96740.28;;;5.36;100.00
71889;BME280;59762;49.998;14.858;2023-11-19T09:39:43;96720.75;;;5.37;100.00
71889;BME280;59762;49.998;14.858;2023-11-19T09:42:09;96721.41;;;5.49;100.00
71889;BME280;59762;49.998;14.858;2023-11-19T09:44:37;96722.50;;;5.65;100.00
71889;BME280;59762;49.998;14.858;2023-11-19T09:47:04;96734.81;;;5.93;100.00
71889;BME280;59762;49.998;14.858;2023-11-19T09:49:31;96710.94;;;6.20;100.00
71889;BME280;59762;49.998;14.858;2023-11-19T09:51:57;96711.66;;;6.22;100.00
71889;BME280;59762;49.998;14.858;2023-11-19T09:54:24;96724.38;;;6.19;100.00
71889;BME280;59762;49.998;14.858;2023-11-19T09:56:49;96722.16;;;6.14;100.00
71889;BME280;59762;49.998;14.858;2023-11-19T09:59:16;96727.31;;;6.16;100.00
71889;BME280;59762;49.998;14.858;2023-11-19T10:01:43;96712.91;;;6.63;100.00
71889;BME280;59762;49.998;14.858;2023-11-19T10:04:09;96717.84;;;6.75;100.00
71889;BME280;59762;49.998;14.858;2023-11-19T10:06:36;96721.00;;;6.79;100.00
71889;BME280;59762;49.998;14.858;2023-11-19T10:09:02;96713.34;;;6.93;100.00
71889;BME280;59762;49.998;14.858;2023-11-19T10:11:30;96718.88;;;7.00;100.00
71889;BME280;59762;49.998;14.858;2023-11-19T10:13:56;96723.97;;;6.93;100.00
71889;BME280;59762;49.998;14.858;2023-11-19T10:16:28;96729.72;;;7.24;100.00
71889;BME280;59762;49.998;14.858;2023-11-19T10:18:55;96713.41;;;7.44;100.00
71889;BME280;59762;49.998;14.858;2023-11-19T10:21:21;96709.91;;;7.18;100.00
71889;BME280;59762;49.998;14.858;2023-11-19T10:23:49;96699.63;;;6.98;100.00
71889;BME280;59762;49.998;14.858;2023-11-19T10:26:17;96700.63;;;6.97;100.00
71889;BME280;59762;49.998;14.858;2023-11-19T10:28:43;96695.16;;;6.98;100.00
71889;BME280;59762;49.998;14.858;2023-11-19T10:31:18;96698.78;;;6.97;100.00
71889;BME280;59762;49.998;14.858;2023-11-19T10:33:45;96693.63;;;6.96;100.00
71889;BME280;59762;49.998;14.858;2023-11-19T10:36:14;96688.63;;;7.10;100.00
71889;BME280;59762;49.998;14.858;2023-11-19T10:38:40;96687.22;;;7.24;100.00
71889;BME280;59762;49.998;14.858;2023-11-19T10:41:06;96668.72;;;7.40;100.00
71889;BME280;59762;49.998;14.858;2023-11-19T10:43:43;96666.13;;;7.48;100.00
71889;BME280;59762;49.998;14.858;2023-11-19T10:46:11;96671.53;;;7.64;100.00
71889;BME280;59762;49.998;14.858;2023-11-19T10:48:38;96666.13;;;7.73;100.00
71889;BME280;59762;49.998;14.858;2023-11-19T10:51:05;96676.47;;;7.92;100.00
71889;BME280;59762;49.998;14.858;2023-11-19T10:53:38;96667.84;;;7.98;100.00
71889;BME280;59762;49.998;14.858;2023-11-19T10:56:10;96689.16;;;8.06;100.00
71889;BME280;59762;49.998;14.858;2023-11-19T10:58:37;96680.75;;;8.19;100.00
71889;BME280;59762;49.998;14.858;2023-11-19T11:01:13;96673.34;;;8.31;100.00
71889;BME280;59762;49.998;14.858;2023-11-19T11:03:42;96676.03;;;8.55;100.00
71889;BME280;59762;49.998;14.858;2023-11-19T11:06:13;96679.91;;;8.76;100.00
71889;BME280;59762;49.998;14.858;2023-11-19T11:08:39;96673.59;;;8.85;100.00
71889;BME280;59762;49.998;14.858;2023-11-19T11:11:07;96672.75;;;8.93;100.00
71889;BME280;59762;49.998;14.858;2023-11-19T11:13:33;96685.88;;;8.78;100.00
71889;BME280;59762;49.998;14.858;2023-11-19T11:16:01;96676.56;;;8.82;100.00
71889;BME280;59762;49.998;14.858;2023-11-19T11:18:27;96677.41;;;8.83;100.00
71889;BME280;59762;49.998;14.858;2023-11-19T11:20:57;96679.06;;;8.76;100.00
71889;BME280;59762;49.998;14.858;2023-11-19T11:28:44;96685.41;;;8.91;100.00
71889;BME280;59762;49.998;14.858;2023-11-19T11:37:18;96680.56;;;9.26;100.00
71889;BME280;59762;49.998;14.858;2023-11-19T11:39:49;96670.44;;;9.22;100.00
71889;BME280;59762;49.998;14.858;2023-11-19T11:58:13;96689.88;;;9.46;100.00
71889;BME280;59762;49.998;14.858;2023-11-19T12:00:40;96697.50;;;9.57;100.00
71889;BME280;59762;49.998;14.858;2023-11-19T12:03:07;96709.50;;;9.61;100.00
71889;BME280;59762;49.998;14.858;2023-11-19T12:05:54;96698.66;;;9.63;100.00
71889;BME280;59762;49.998;14.858;2023-11-19T12:08:24;96703.69;;;9.58;100.00
71889;BME280;59762;49.998;14.858;2023-11-19T12:10:52;96700.31;;;9.72;100.00
71889;BME280;59762;49.998;14.858;2023-11-19T12:13:19;96685.88;;;9.50;100.00
71889;BME280;59762;49.998;14.858;2023-11-19T12:18:31;96681.72;;;9.48;100.00
71889;BME280;59762;49.998;14.858;2023-11-19T12:20:58;96679.69;;;9.50;100.00
71889;BME280;59762;49.998;14.858;2023-11-19T12:23:31;96671.53;;;9.51;100.00
71889;BME280;59762;49.998;14.858;2023-11-19T12:25:58;96684.69;;;9.61;100.00
71889;BME280;59762;49.998;14.858;2023-11-19T12:28:24;96686.19;;;9.63;100.00
71889;BME280;59762;49.998;14.858;2023-11-19T12:30:52;96682.19;;;9.51;100.00
71889;BME280;59762;49.998;14.858;2023-11-19T12:33:19;96683.22;;;9.42;100.00
71889;BME280;59762;49.998;14.858;2023-11-19T12:35:46;96672.06;;;9.39;100.00
71889;BME280;59762;49.998;14.858;2023-11-19T12:38:22;96667.72;;;9.38;100.00
71889;BME280;59762;49.998;14.858;2023-11-19T12:41:09;96664.25;;;9.45;100.00
71889;BME280;59762;49.998;14.858;2023-11-19T12:43:39;96668.03;;;9.59;100.00
71889;BME280;59762;49.998;14.858;2023-11-19T12:46:21;96665.34;;;9.67;100.00
71889;BME280;59762;49.998;14.858;2023-11-19T12:48:51;96662.66;;;9.75;100.00
71889;BME280;59762;49.998;14.858;2023-11-19T12:51:17;96662.50;;;9.76;100.00
71889;BME280;59762;49.998;14.858;2023-11-19T12:53:53;96656.19;;;9.61;100.00
71889;BME280;59762;49.998;14.858;2023-11-19T12:56:24;96648.56;;;9.50;100.00
71889;BME280;59762;49.998;14.858;2023-11-19T12:58:50;96644.75;;;9.45;100.00
71889;BME280;59762;49.998;14.858;2023-11-19T13:01:17;96632.75;;;9.41;100.00
71889;BME280;59762;49.998;14.858;2023-11-19T13:03:44;96641.91;;;9.46;100.00
71889;BME280;59762;49.998;14.858;2023-11-19T13:06:12;96633.44;;;9.35;100.00
71889;BME280;59762;49.998;14.858;2023-11-19T13:08:49;96639.94;;;9.32;100.00
71889;BME280;59762;49.998;14.858;2023-11-19T13:11:31;96635.59;;;9.31;100.00
71889;BME280;59762;49.998;14.858;2023-11-19T13:14:05;96640.59;;;9.18;100.00
71889;BME280;59762;49.998;14.858;2023-11-19T13:16:36;96625.31;;;9.12;100.00
71889;BME280;59762;49.998;14.858;2023-11-19T13:19:02;96629.47;;;8.99;100.00
71889;BME280;59762;49.998;14.858;2023-11-19T13:21:28;96629.31;;;9.08;100.00